Time;durP1;ratioP1;P1;durP2;ratioP2;P2;SDS_P1;SDS_P2;PMS_P1;PMS_P2;Temp;Humidity;BMP_temperature;BMP_pressure;BME280_temperature;BME280_humidity;BME280_pressure;Samples;Min_cycle;Max_cycle;Signal;HPM_P1;HPM_P2
2023/01/10 00:00:21;;;;;;;4.28;1.95;;;;;;;4.42;68.05;99508.56;10347898;28;20522;-60
2023/01/10 00:05:23;;;;;;;5.05;1.80;;;;;;;4.39;68.26;99520.81;10350186;28;20537;-59
2023/01/10 00:10:25;;;;;;;6.07;2.22;;;;;;;4.35;68.33;99530.41;10349321;28;20410;-60
2023/01/10 00:15:26;;;;;;;4.95;2.08;;;;;;;4.33;68.44;99552.13;10347886;28;20053;-59
2023/01/10 00:20:28;;;;;;;6.45;2.88;;;;;;;4.51;68.53;99565.16;10347429;28;21006;-60
2023/01/10 00:25:33;;;;;;;8.02;3.33;;;;;;;4.59;68.17;99560.50;10348780;28;20054;-60
2023/01/10 00:30:36;;;;;;;7.55;3.42;;;;;;;4.46;68.47;99569.69;10347885;28;20046;-59
2023/01/10 00:35:38;;;;;;;6.85;2.90;;;;;;;4.43;68.51;99585.31;10342419;28;20057;-60
2023/01/10 00:40:40;;;;;;;6.25;2.72;;;;;;;4.35;68.66;99600.31;10347208;28;20049;-60
2023/01/10 00:45:46;;;;;;;10.50;4.45;;;;;;;4.35;68.75;99612.44;10346483;28;20060;-60
2023/01/10 00:50:48;;;;;;;15.38;7.93;;;;;;;4.41;68.96;99627.75;10343351;28;20780;-60
2023/01/10 00:55:50;;;;;;;5.60;2.65;;;;;;;4.53;68.85;99641.03;10347214;28;20057;-60
2023/01/10 01:00:51;;;;;;;11.35;4.65;;;;;;;4.64;68.68;99656.97;10343911;28;20058;-60
2023/01/10 01:05:53;;;;;;;6.72;3.40;;;;;;;4.74;68.57;99659.22;10346221;28;20610;-60
2023/01/10 01:10:55;;;;;;;5.68;2.38;;;;;;;4.80;68.59;99677.91;10343492;28;20537;-60
2023/01/10 01:15:58;;;;;;;4.07;1.85;;;;;;;4.81;68.62;99683.94;10346095;28;20057;-60
2023/01/10 01:21:02;;;;;;;5.72;2.15;;;;;;;4.68;68.76;99693.97;10343909;28;20062;-59
2023/01/10 01:26:05;;;;;;;7.45;2.30;;;;;;;4.72;68.68;99706.72;10341225;28;20058;-59
2023/01/10 01:31:08;;;;;;;8.43;2.42;;;;;;;4.65;68.70;99723.44;10344661;28;20045;-60
2023/01/10 01:36:11;;;;;;;4.97;2.30;;;;;;;4.48;68.68;99738.78;10343598;28;20057;-60
2023/01/10 01:46:36;;;;;;;6.10;2.20;;;;;;;4.36;68.52;99767.72;10345441;28;20817;-59
2023/01/10 01:51:38;;;;;;;6.28;2.10;;;;;;;4.32;68.58;99789.44;10357876;28;20049;-60
2023/01/10 01:56:42;;;;;;;5.20;1.80;;;;;;;4.34;68.90;99813.53;10344581;28;20164;-60
2023/01/10 02:01:48;;;;;;;5.32;1.90;;;;;;;4.51;68.48;99826.72;10345087;28;20062;-59
2023/01/10 02:06:52;;;;;;;6.22;2.10;;;;;;;4.67;68.13;99812.28;10344019;28;20111;-60
2023/01/10 02:11:55;;;;;;;6.25;1.90;;;;;;;4.62;67.93;99805.56;10344952;28;20053;-59
2023/01/10 02:16:56;;;;;;;4.38;1.83;;;;;;;4.58;68.21;99815.22;10344019;28;20045;-60
2023/01/10 02:22:23;;;;;;;5.93;2.20;;;;;;;4.62;68.14;99816.78;10344570;28;20508;-60
2023/01/10 02:27:30;;;;;;;5.30;1.90;;;;;;;4.66;67.93;99826.13;10341073;28;20085;-59
2023/01/10 02:32:42;;;;;;;6.75;1.90;;;;;;;4.79;67.59;99821.34;10342524;28;20045;-59
2023/01/10 02:38:19;;;;;;;4.60;1.80;;;;;;;4.79;67.56;99830.84;10342521;28;20050;-60
2023/01/10 02:43:30;;;;;;;5.22;2.00;;;;;;;4.78;67.52;99844.72;10344242;28;20050;-60
2023/01/10 02:48:32;;;;;;;5.30;2.10;;;;;;;4.83;67.50;99854.00;10343288;28;20505;-60
2023/01/10 02:53:38;;;;;;;9.63;2.15;;;;;;;4.93;67.26;99851.88;10342547;28;20886;-60
2023/01/10 02:59:01;;;;;;;5.05;1.88;;;;;;;4.95;66.54;99853.53;10343437;28;20053;-59
2023/01/10 03:04:27;;;;;;;7.03;2.00;;;;;;;4.94;66.77;99858.78;10347114;28;20483;-60
2023/01/10 03:09:38;;;;;;;8.93;2.00;;;;;;;4.97;66.70;99862.09;10352846;28;20143;-60
2023/01/10 03:14:41;;;;;;;8.07;2.00;;;;;;;4.97;66.65;99869.00;10356961;28;20045;-59
2023/01/10 03:19:50;;;;;;;7.97;2.08;;;;;;;4.98;66.61;99879.34;10354687;28;20490;-59
2023/01/10 03:24:54;;;;;;;7.97;2.17;;;;;;;4.99;66.40;99885.34;10358122;28;20050;-59
2023/01/10 03:30:09;;;;;;;5.18;1.95;;;;;;;5.05;66.38;99895.47;10357232;28;20058;-60
2023/01/10 03:35:12;;;;;;;7.43;1.92;;;;;;;5.17;66.11;99908.81;10357485;28;20058;-59
2023/01/10 03:40:22;;;;;;;9.70;2.33;;;;;;;5.22;66.14;99904.31;10356972;28;20079;-59
2023/01/10 03:45:30;;;;;;;9.82;2.58;;;;;;;5.08;65.77;99921.31;10356620;28;20927;-59
2023/01/10 03:50:32;;;;;;;11.50;2.40;;;;;;;5.02;66.13;99922.38;10355320;28;20053;-59
2023/01/10 03:55:36;;;;;;;9.75;2.30;;;;;;;5.05;65.90;99936.94;10357412;28;20578;-59
2023/01/10 04:00:38;;;;;;;8.75;2.25;;;;;;;4.92;65.93;99944.38;10355324;28;20053;-59
2023/01/10 04:05:39;;;;;;;9.45;2.35;;;;;;;4.93;65.98;99953.81;10350133;28;20241;-59
2023/01/10 04:10:41;;;;;;;7.97;2.55;;;;;;;4.91;65.87;99962.53;10347938;28;20058;-59
2023/01/10 04:15:43;;;;;;;12.38;2.72;;;;;;;4.75;66.23;99971.75;10350493;28;20042;-60
2023/01/10 04:20:44;;;;;;;9.63;2.72;;;;;;;4.85;66.24;99983.47;10346304;28;20418;-60
2023/01/10 04:25:46;;;;;;;15.80;2.80;;;;;;;4.92;66.31;99967.69;10347775;28;20049;-59
2023/01/10 04:30:48;;;;;;;17.23;2.78;;;;;;;4.74;66.55;99983.03;10348580;28;20050;-59
2023/01/10 04:35:51;;;;;;;10.82;3.10;;;;;;;4.76;66.64;99992.41;10344582;28;20056;-59
2023/01/10 04:40:56;;;;;;;11.25;2.70;;;;;;;4.81;67.08;100013.00;10349191;28;20049;-60
2023/01/10 04:45:58;;;;;;;11.35;2.88;;;;;;;4.75;66.94;100019.25;10347612;28;20153;-60
2023/01/10 04:51:00;;;;;;;10.77;2.80;;;;;;;4.70;66.76;100023.72;10346506;28;20064;-60
2023/01/10 04:56:06;;;;;;;11.48;2.85;;;;;;;4.60;66.83;100036.16;10348032;28;20046;-60
2023/01/10 05:01:20;;;;;;;10.38;2.92;;;;;;;4.62;66.74;100034.34;10347179;28;20065;-60
2023/01/10 05:06:23;;;;;;;14.95;2.88;;;;;;;4.65;66.79;100029.09;10343182;28;20483;-60
2023/01/10 05:11:24;;;;;;;10.77;2.92;;;;;;;4.69;66.62;100046.22;10346042;28;20350;-61
2023/01/10 05:16:27;;;;;;;8.85;2.67;;;;;;;4.66;66.64;100059.25;10343865;28;20057;-61
2023/01/10 05:21:29;;;;;;;14.07;2.67;;;;;;;4.65;66.67;100061.91;10347768;28;20161;-61
2023/01/10 05:26:30;;;;;;;16.50;3.40;;;;;;;4.65;66.67;100062.75;10346330;28;20073;-61
2023/01/10 05:31:32;;;;;;;9.48;2.72;;;;;;;4.64;66.61;100063.63;10344245;28;20723;-61
2023/01/10 05:36:33;;;;;;;9.57;3.15;;;;;;;4.65;66.44;100069.69;10344890;28;20052;-61
2023/01/10 05:41:35;;;;;;;15.25;3.63;;;;;;;4.71;66.13;100069.47;10346072;28;20045;-61
2023/01/10 05:46:37;;;;;;;11.73;3.30;;;;;;;4.66;66.09;100077.38;10344945;28;20069;-61
2023/01/10 05:51:38;;;;;;;14.60;5.38;;;;;;;4.61;65.94;100089.66;10343357;28;20053;-61
2023/01/10 05:56:40;;;;;;;13.20;5.05;;;;;;;4.51;65.87;100111.59;10345283;28;20062;-61
2023/01/10 06:01:42;;;;;;;8.82;3.45;;;;;;;4.43;66.04;100104.94;10345255;28;20062;-61
2023/01/10 06:06:43;;;;;;;14.95;3.45;;;;;;;4.30;66.12;100126.94;10344261;28;20046;-61
2023/01/10 06:11:45;;;;;;;12.77;3.03;;;;;;;4.18;66.42;100124.72;10343371;28;20434;-61
2023/01/10 06:16:47;;;;;;;12.80;3.55;;;;;;;4.05;66.67;100123.41;10343518;28;20048;-61
2023/01/10 06:21:48;;;;;;;11.85;3.35;;;;;;;4.04;66.48;100130.31;10343664;28;20050;-61
2023/01/10 06:26:50;;;;;;;14.93;3.55;;;;;;;3.95;66.64;100151.28;10326003;28;20141;-61
2023/01/10 06:31:51;;;;;;;13.88;3.63;;;;;;;3.88;66.79;100176.47;10343392;28;20513;-61
2023/01/10 06:36:53;;;;;;;13.15;3.20;;;;;;;3.76;67.08;100166.44;10342694;28;20490;-61
2023/01/10 06:41:55;;;;;;;15.48;3.47;;;;;;;3.82;66.85;100149.94;10341341;28;20049;-61
2023/01/10 06:46:56;;;;;;;12.35;3.60;;;;;;;3.77;66.68;100154.38;10341206;28;20058;-60
2023/01/10 06:51:58;;;;;;;20.13;3.05;;;;;;;3.74;66.73;100185.53;10341692;28;20057;-61
2023/01/10 06:57:00;;;;;;;14.35;3.55;;;;;;;3.65;66.89;100198.69;10337418;28;20117;-61
2023/01/10 07:02:01;;;;;;;13.57;3.67;;;;;;;3.59;67.09;100201.44;10340983;28;20141;-61
2023/01/10 07:07:03;;;;;;;14.73;4.15;;;;;;;3.51;67.30;100222.34;10332567;28;20390;-61
2023/01/10 07:12:05;;;;;;;15.27;3.30;;;;;;;3.44;67.38;100225.97;10341610;28;20053;-61
2023/01/10 07:17:07;;;;;;;20.75;5.43;;;;;;;3.35;67.70;100215.88;10339482;28;20050;-61
2023/01/10 07:22:08;;;;;;;13.55;4.40;;;;;;;3.38;67.44;100212.34;10340790;28;20042;-61
2023/01/10 07:27:10;;;;;;;14.88;3.42;;;;;;;3.30;67.51;100224.63;10339249;28;20054;-61
2023/01/10 07:32:12;;;;;;;14.80;3.45;;;;;;;3.32;67.53;100225.44;10339438;28;20052;-61
2023/01/10 07:37:13;;;;;;;15.68;3.35;;;;;;;3.30;67.41;100235.81;10338842;28;20069;-61
2023/01/10 07:42:15;;;;;;;17.75;3.55;;;;;;;3.40;67.42;100252.78;10341931;28;20498;-61
2023/01/10 07:47:17;;;;;;;15.30;3.20;;;;;;;3.46;67.07;100254.38;10338672;28;20109;-61
2023/01/10 07:52:18;;;;;;;13.68;3.10;;;;;;;3.45;66.90;100250.94;10341406;28;20541;-61
2023/01/10 07:57:20;;;;;;;16.50;3.20;;;;;;;3.50;67.00;100266.31;10344182;28;20061;-61
2023/01/10 08:02:22;;;;;;;15.13;2.92;;;;;;;3.51;66.75;100279.22;10347862;28;20046;-61
2023/01/10 08:07:24;;;;;;;15.40;2.85;;;;;;;3.48;67.08;100273.28;10344055;28;20050;-61
2023/01/10 08:12:25;;;;;;;12.15;2.72;;;;;;;3.61;66.67;100272.94;10347554;28;20053;-61
2023/01/10 08:17:27;;;;;;;20.20;3.47;;;;;;;3.70;66.46;100279.63;10348581;28;20046;-61
2023/01/10 08:22:29;;;;;;;17.10;3.65;;;;;;;3.76;66.46;100282.84;10346536;28;21078;-61
2023/01/10 08:27:30;;;;;;;15.70;3.40;;;;;;;4.01;66.05;100283.09;10348170;28;20058;-61
2023/01/10 08:32:32;;;;;;;16.98;3.03;;;;;;;4.30;65.65;100277.94;10348580;28;20473;-61
2023/01/10 08:37:34;;;;;;;16.63;2.80;;;;;;;4.66;64.98;100286.38;10348415;28;20045;-60
2023/01/10 08:42:36;;;;;;;18.00;3.10;;;;;;;5.01;64.10;100282.69;10347135;28;20049;-61
2023/01/10 08:47:38;;;;;;;16.02;3.17;;;;;;;4.97;64.17;100297.50;10346873;28;20752;-61
2023/01/10 08:52:39;;;;;;;13.20;3.13;;;;;;;5.00;63.82;100301.75;10343122;28;20700;-62
2023/01/10 08:57:41;;;;;;;15.38;3.40;;;;;;;4.79;63.91;100318.78;10344865;28;20054;-62
2023/01/10 09:02:43;;;;;;;20.75;3.45;;;;;;;4.59;64.23;100316.81;10337457;28;20069;-62
2023/01/10 09:07:45;;;;;;;16.33;3.10;;;;;;;4.56;64.34;100332.41;10346011;28;20176;-62
2023/01/10 09:12:56;;;;;;;16.95;3.35;;;;;;;4.56;64.45;100334.16;10346286;28;20057;-62
2023/01/10 09:18:00;;;;;;;13.27;3.00;;;;;;;4.71;64.24;100341.50;10346156;28;20576;-62
2023/01/10 09:23:10;;;;;;;18.58;3.20;;;;;;;4.84;63.82;100344.56;10347030;28;20080;-62
2023/01/10 09:28:12;;;;;;;22.55;3.88;;;;;;;4.96;63.56;100344.19;10343742;28;20058;-62
2023/01/10 09:33:14;;;;;;;19.88;3.22;;;;;;;5.03;63.31;100346.56;10346274;28;20572;-62
2023/01/10 09:38:18;;;;;;;18.13;3.10;;;;;;;5.04;63.07;100345.69;10345187;28;20065;-62
2023/01/10 09:43:25;;;;;;;17.70;3.30;;;;;;;5.13;62.98;100358.34;10345831;28;20054;-61
2023/01/10 09:48:42;;;;;;;18.45;3.10;;;;;;;5.27;62.52;100363.94;10345529;28;20054;-62
2023/01/10 09:53:44;;;;;;;17.08;3.20;;;;;;;5.38;62.10;100376.56;10345327;28;20064;-61
2023/01/10 09:58:49;;;;;;;12.40;3.20;;;;;;;5.36;61.94;100386.16;10343872;28;20092;-62
2023/01/10 10:04:04;;;;;;;14.73;3.20;;;;;;;5.40;61.15;100379.97;10343532;28;20041;-62
2023/01/10 10:09:12;;;;;;;18.45;3.47;;;;;;;5.45;61.11;100378.09;10343201;28;20114;-62
2023/01/10 10:14:43;;;;;;;19.70;3.85;;;;;;;5.37;60.93;100387.88;10343048;28;20050;-61
2023/01/10 10:20:03;;;;;;;13.25;3.25;;;;;;;5.49;60.46;100379.69;10343401;28;20055;-62
2023/01/10 10:25:17;;;;;;;17.63;2.85;;;;;;;5.42;61.06;100380.78;10344174;28;20480;-62
2023/01/10 10:30:29;;;;;;;13.85;3.40;;;;;;;5.60;59.43;100374.13;10344121;28;20416;-62
2023/01/10 10:35:39;;;;;;;14.93;3.40;;;;;;;5.73;59.30;100381.50;10344766;28;20399;-62
2023/01/10 10:40:43;;;;;;;14.82;2.90;;;;;;;5.85;59.70;100380.22;10344398;28;20403;-62
2023/01/10 10:45:51;;;;;;;15.20;3.70;;;;;;;5.88;59.12;100377.53;10344941;28;20061;-62
2023/01/10 10:50:59;;;;;;;11.35;2.63;;;;;;;5.79;57.29;100370.06;10344291;28;20516;-62
2023/01/10 10:56:03;;;;;;;15.10;3.50;;;;;;;5.90;57.90;100354.97;10344754;28;20057;-62
2023/01/10 11:01:05;;;;;;;16.83;3.45;;;;;;;5.68;57.58;100366.94;10343945;28;20058;-62
2023/01/10 11:06:08;;;;;;;16.38;2.95;;;;;;;5.79;56.89;100355.34;10344212;28;20502;-62
2023/01/10 11:11:16;;;;;;;19.13;3.47;;;;;;;5.91;56.41;100349.72;10344716;28;20057;-62
2023/01/10 11:16:30;;;;;;;15.90;3.28;;;;;;;5.94;55.35;100364.34;10343587;28;20046;-62
2023/01/10 11:21:32;;;;;;;11.82;2.92;;;;;;;5.94;56.18;100379.94;10343177;28;20049;-62
2023/01/10 11:26:39;;;;;;;16.92;3.15;;;;;;;5.88;55.41;100386.16;10343730;28;20557;-62
2023/01/10 11:31:41;;;;;;;11.85;2.95;;;;;;;6.02;55.98;100355.38;10350364;28;20537;-61
2023/01/10 11:37:24;;;;;;;16.77;3.22;;;;;;;6.03;54.78;100341.50;10351634;28;20137;-62
2023/01/10 11:42:28;;;;;;;15.65;3.42;;;;;;;6.15;55.56;100341.09;10354453;28;20049;-62
2023/01/10 11:47:32;;;;;;;17.38;3.90;;;;;;;6.09;55.10;100343.03;10351060;28;20406;-62
2023/01/10 11:52:45;;;;;;;20.52;3.72;;;;;;;6.40;55.26;100335.91;10352194;28;20050;-62
2023/01/10 11:57:55;;;;;;;19.00;3.53;;;;;;;6.68;54.68;100320.97;10346446;28;20485;-62
2023/01/10 12:02:57;;;;;;;15.73;3.40;;;;;;;6.67;54.84;100321.91;10349275;28;20062;-62
2023/01/10 12:08:06;;;;;;;17.42;3.63;;;;;;;6.78;54.50;100324.06;10350177;28;20061;-63
2023/01/10 12:13:16;;;;;;;20.33;4.05;;;;;;;6.87;54.36;100316.78;10351026;28;20458;-62
2023/01/10 12:18:18;;;;;;;16.73;3.33;;;;;;;6.97;54.12;100312.06;10345832;28;20546;-62
2023/01/10 12:23:24;;;;;;;24.20;4.18;;;;;;;7.04;53.73;100306.56;10349068;28;20054;-62
2023/01/10 12:28:28;;;;;;;14.07;3.42;;;;;;;7.08;53.98;100304.69;10349699;28;20050;-62
2023/01/10 12:33:34;;;;;;;14.38;3.08;;;;;;;7.18;53.95;100295.63;10348563;28;20050;-62
2023/01/10 12:44:10;;;;;;;13.13;2.90;;;;;;;7.41;53.93;100298.13;10349632;28;20049;-62
2023/01/10 12:49:26;;;;;;;13.27;2.58;;;;;;;7.32;52.24;100297.66;10346799;28;20058;-61
2023/01/10 12:54:29;;;;;;;17.67;3.80;;;;;;;7.26;53.72;100314.38;10348382;28;20046;-62
2023/01/10 12:59:38;;;;;;;18.02;3.70;;;;;;;7.49;53.50;100311.66;10348851;28;20141;-62
2023/01/10 13:04:45;;;;;;;17.02;3.08;;;;;;;7.57;53.38;100301.78;10347251;28;20046;-62
2023/01/10 13:09:48;;;;;;;17.35;4.20;;;;;;;7.52;53.42;100310.69;10349201;28;20054;-62
2023/01/10 13:15:29;;;;;;;21.95;3.90;;;;;;;7.50;53.22;100317.72;10346638;28;20149;-62
2023/01/10 13:20:41;;;;;;;20.70;4.30;;;;;;;7.36;53.11;100317.44;10341388;28;20054;-62
2023/01/10 13:25:54;;;;;;;21.13;4.00;;;;;;;7.12;53.54;100320.09;10341092;28;20042;-61
2023/01/10 13:31:00;;;;;;;16.00;3.40;;;;;;;7.30;53.99;100313.34;10343282;28;20046;-62
2023/01/10 13:36:18;;;;;;;19.90;5.00;;;;;;;7.39;53.20;100310.34;10336777;28;20788;-61
2023/01/10 13:46:50;;;;;;;22.23;6.63;;;;;;;7.55;53.52;100292.38;10340587;28;20965;-62
2023/01/10 13:52:10;;;;;;;;;;;;;;;7.31;53.88;100280.34;10342986;28;20062;-62
2023/01/10 13:57:52;;;;;;;21.33;6.55;;;;;;;7.50;53.87;100268.28;10344766;28;19932;-62
2023/01/10 14:02:53;;;;;;;25.30;6.73;;;;;;;7.54;54.04;100264.63;10346238;28;20041;-62
2023/01/10 14:07:56;;;;;;;22.95;5.75;;;;;;;7.57;54.17;100259.31;10340410;28;20049;-62
2023/01/10 14:13:14;;;;;;;22.00;5.80;;;;;;;7.54;53.67;100252.47;10342254;28;20053;-62
2023/01/10 14:18:20;;;;;;;23.20;3.90;;;;;;;7.32;54.27;100256.03;10345046;28;20797;-62
2023/01/10 14:23:33;;;;;;;21.42;4.05;;;;;;;7.23;54.56;100261.59;10342583;28;20046;-62
2023/01/10 14:28:35;;;;;;;15.98;4.10;;;;;;;7.18;54.35;100254.81;10340995;28;20068;-62
2023/01/10 14:33:39;;;;;;;18.23;3.78;;;;;;;7.19;54.54;100243.53;10344110;28;20093;-61
2023/01/10 14:38:44;;;;;;;14.57;4.13;;;;;;;7.12;54.39;100243.84;10341975;28;20054;-62
2023/01/10 14:43:53;;;;;;;21.13;3.60;;;;;;;7.00;54.59;100236.53;10342649;28;20046;-62
2023/01/10 14:48:59;;;;;;;14.45;3.13;;;;;;;6.93;54.90;100245.50;10343120;28;20049;-62
2023/01/10 14:54:12;;;;;;;13.80;3.10;;;;;;;6.61;53.86;100230.31;10343022;28;20125;-62
2023/01/10 14:59:23;;;;;;;17.65;3.30;;;;;;;6.73;54.60;100232.44;10341366;28;20402;-62
2023/01/10 15:04:28;;;;;;;18.35;4.00;;;;;;;6.67;55.03;100227.47;10344577;28;20045;-62
2023/01/10 15:09:32;;;;;;;20.67;3.80;;;;;;;6.59;55.28;100219.13;10351119;28;20054;-62
2023/01/10 15:14:36;;;;;;;16.00;3.45;;;;;;;6.54;55.25;100215.84;10351411;28;20069;-62
2023/01/10 15:19:39;;;;;;;16.33;3.40;;;;;;;6.53;55.41;100216.78;10349397;28;20057;-62
2023/01/10 15:24:41;;;;;;;21.90;5.18;;;;;;;6.51;55.61;100208.19;10342611;28;20766;-62
2023/01/10 15:29:45;;;;;;;16.15;3.63;;;;;;;6.44;55.27;100201.53;10349570;28;20417;-62
2023/01/10 15:34:53;;;;;;;23.45;4.28;;;;;;;6.38;55.67;100192.22;10348346;28;20042;-62
2023/01/10 15:39:54;;;;;;;16.23;4.20;;;;;;;6.45;55.85;100187.66;10350941;28;20429;-62
2023/01/10 15:44:57;;;;;;;17.08;5.10;;;;;;;6.52;55.38;100173.50;10348863;28;20483;-62
2023/01/10 15:49:58;;;;;;;19.00;4.03;;;;;;;6.41;55.66;100178.28;10351181;28;20061;-62
2023/01/10 15:55:00;;;;;;;16.38;4.30;;;;;;;6.34;56.01;100173.31;10347232;28;20052;-62
2023/01/10 16:00:02;;;;;;;15.90;4.20;;;;;;;6.42;55.83;100178.22;10348696;28;20510;-62
2023/01/10 16:05:07;;;;;;;20.63;4.65;;;;;;;6.53;55.74;100175.22;10347152;28;20065;-62
2023/01/10 16:10:23;;;;;;;21.65;4.38;;;;;;;6.47;55.87;100173.66;10347583;28;20414;-62
2023/01/10 16:15:27;;;;;;;14.65;4.10;;;;;;;6.51;55.96;100171.81;10343333;28;20473;-62
2023/01/10 16:20:39;;;;;;;19.80;4.07;;;;;;;6.38;56.05;100157.59;10346137;28;20086;-62
2023/01/10 16:25:48;;;;;;;22.98;4.95;;;;;;;6.31;56.09;100138.81;10331839;28;20420;-62
2023/01/10 16:30:50;;;;;;;15.98;4.25;;;;;;;6.30;56.52;100148.38;10342318;28;20678;-62
2023/01/10 16:35:53;;;;;;;23.27;4.10;;;;;;;6.26;56.38;100128.63;10346804;28;20056;-61
2023/01/10 16:43:16;;;;;;;24.55;5.13;;;;;;;6.12;56.82;100133.44;10343734;28;20054;-62
2023/01/10 16:46:23;;;;;;;21.67;4.50;;;;;;;6.22;56.95;100118.38;10347750;28;20136;-62
2023/01/10 16:51:31;;;;;;;23.85;6.18;;;;;;;6.29;56.69;100112.91;10346928;28;20125;-62
2023/01/10 16:56:33;;;;;;;25.70;6.05;;;;;;;6.33;56.73;100093.69;10345198;28;20064;-61
2023/01/10 17:01:42;;;;;;;18.35;3.90;;;;;;;6.27;56.92;100083.56;10345433;28;20050;-61
2023/01/10 17:06:44;;;;;;;19.20;4.07;;;;;;;6.23;56.90;100068.97;10347885;28;20042;-62
2023/01/10 17:11:53;;;;;;;18.05;4.00;;;;;;;6.26;56.84;100062.84;10346551;28;20058;-61
2023/01/10 17:16:54;;;;;;;19.33;3.97;;;;;;;6.28;56.96;100074.88;10347699;28;20069;-61
2023/01/10 17:21:56;;;;;;;21.05;3.90;;;;;;;6.35;57.10;100068.50;10346391;28;20045;-61
2023/01/10 17:26:58;;;;;;;17.67;3.97;;;;;;;6.32;57.60;100068.66;10346808;28;20057;-62
2023/01/10 17:31:59;;;;;;;17.13;4.20;;;;;;;6.40;57.63;100075.25;10345074;28;20050;-61
2023/01/10 17:37:02;;;;;;;19.25;3.63;;;;;;;6.43;57.42;100049.19;10347057;28;20407;-62
2023/01/10 17:42:04;;;;;;;17.92;4.18;;;;;;;6.37;57.91;100054.63;10338236;28;20530;-62
2023/01/10 17:47:06;;;;;;;12.75;3.47;;;;;;;6.32;58.23;100068.66;10346770;28;20080;-62
2023/01/10 17:52:08;;;;;;;19.45;3.95;;;;;;;6.35;58.79;100070.25;10343042;28;20054;-62
2023/01/10 17:57:10;;;;;;;19.35;3.90;;;;;;;6.27;58.91;100070.56;10343806;28;20414;-62
2023/01/10 18:02:16;;;;;;;18.08;4.75;;;;;;;6.27;59.49;100073.16;10341118;28;20053;-62
2023/01/10 18:07:18;;;;;;;16.17;3.85;;;;;;;6.04;60.27;100065.38;10343264;28;20525;-62
2023/01/10 18:12:19;;;;;;;13.70;3.30;;;;;;;6.07;60.90;100067.88;10343785;28;20053;-62
2023/01/10 18:17:21;;;;;;;23.23;4.47;;;;;;;6.07;61.34;100067.88;10341939;28;20871;-62
2023/01/10 18:27:48;;;;;;;20.70;4.72;;;;;;;6.02;62.24;100063.78;10342865;28;20050;-61
2023/01/10 18:32:52;;;;;;;17.13;3.70;;;;;;;5.99;62.55;100067.34;10343747;28;20065;-62
2023/01/10 18:37:54;;;;;;;21.52;4.28;;;;;;;5.91;63.25;100071.97;10341609;28;20054;-62
2023/01/10 18:42:57;;;;;;;14.10;3.33;;;;;;;5.77;64.08;100069.06;10340568;28;20050;-62
2023/01/10 18:48:00;;;;;;;14.20;3.92;;;;;;;5.84;63.89;100064.50;10341212;28;20050;-61
2023/01/10 18:53:03;;;;;;;17.50;3.60;;;;;;;5.81;63.75;100062.00;10340412;28;20049;-62
2023/01/10 18:58:05;;;;;;;15.73;3.75;;;;;;;5.64;63.99;100054.00;10341522;28;20045;-62
2023/01/10 19:03:08;;;;;;;16.92;3.38;;;;;;;5.59;64.32;100061.13;10342220;28;20589;-62
2023/01/10 19:08:12;;;;;;;10.60;3.22;;;;;;;5.57;64.52;100052.56;10341273;28;20056;-62
2023/01/10 19:13:14;;;;;;;13.20;3.20;;;;;;;5.57;64.59;100042.19;10341068;28;20065;-62
2023/01/10 19:18:16;;;;;;;18.05;4.05;;;;;;;5.52;65.23;100043.19;10336421;28;20077;-62
2023/01/10 19:23:18;;;;;;;15.18;3.92;;;;;;;5.62;65.13;100032.47;10342210;28;20058;-62
2023/01/10 19:28:19;;;;;;;15.43;3.22;;;;;;;5.70;64.89;100027.81;10344414;28;20158;-61
2023/01/10 19:33:21;;;;;;;19.35;4.28;;;;;;;5.68;64.78;100032.22;10343751;28;20057;-61
2023/01/10 19:38:23;;;;;;;14.55;3.70;;;;;;;5.64;64.98;100022.88;10340139;28;20050;-62
2023/01/10 19:43:25;;;;;;;13.25;3.40;;;;;;;5.58;65.18;100023.97;10341932;28;20513;-61
2023/01/10 19:48:26;;;;;;;16.55;4.50;;;;;;;5.63;65.48;100009.06;10343168;28;20057;-61
2023/01/10 19:53:28;;;;;;;17.70;3.85;;;;;;;5.72;65.24;100015.63;10349730;28;20057;-61
2023/01/10 19:58:30;;;;;;;20.48;5.28;;;;;;;5.73;65.51;99992.25;10349431;28;20056;-61
2023/01/10 20:03:32;;;;;;;16.65;3.80;;;;;;;5.83;65.18;99988.38;10349695;28;20046;-61
2023/01/10 20:08:34;;;;;;;20.00;3.72;;;;;;;5.82;65.51;99968.50;10348642;28;20053;-61
2023/01/10 20:13:38;;;;;;;22.27;4.53;;;;;;;5.73;66.01;99962.84;10347236;28;20052;-61
2023/01/10 20:18:41;;;;;;;16.75;3.80;;;;;;;5.77;65.66;99970.47;10350606;28;20521;-61
2023/01/10 20:23:43;;;;;;;18.73;4.20;;;;;;;5.87;65.92;99956.22;10350081;28;20058;-61
2023/01/10 20:28:46;;;;;;;20.45;3.70;;;;;;;5.95;65.72;99956.75;10350210;28;20052;-62
2023/01/10 20:33:49;;;;;;;20.08;4.20;;;;;;;6.01;65.67;99958.25;10344371;28;20136;-62
2023/01/10 20:38:51;;;;;;;15.75;3.90;;;;;;;5.91;65.70;99937.00;10345753;28;20413;-62
2023/01/10 20:43:54;;;;;;;12.95;3.00;;;;;;;5.95;65.79;99928.19;10345085;28;20056;-62
2023/01/10 20:48:57;;;;;;;15.20;3.33;;;;;;;5.99;65.82;99940.13;10347890;28;20057;-62
2023/01/10 20:54:04;;;;;;;14.00;3.30;;;;;;;5.89;66.01;99920.66;10345180;28;20084;-61
2023/01/10 20:59:07;;;;;;;12.82;2.85;;;;;;;5.85;66.12;99921.69;10344917;28;20065;-62
2023/01/10 21:04:09;;;;;;;14.10;4.28;;;;;;;5.85;66.34;99911.31;10345783;28;20042;-61
2023/01/10 21:09:11;;;;;;;8.35;2.25;;;;;;;5.80;66.53;99899.44;10344134;28;20057;-61
2023/01/10 21:14:13;;;;;;;7.60;2.50;;;;;;;5.74;66.72;99897.09;10345614;28;20505;-61
2023/01/10 21:19:15;;;;;;;9.57;2.85;;;;;;;5.76;66.70;99892.69;10342285;28;20060;-61
2023/01/10 21:24:17;;;;;;;8.95;3.05;;;;;;;5.74;66.86;99897.91;10346210;28;20543;-61
2023/01/10 21:29:19;;;;;;;11.55;3.25;;;;;;;5.73;66.69;99891.06;10343824;28;20509;-61
2023/01/10 21:34:21;;;;;;;6.88;2.67;;;;;;;5.79;66.91;99874.38;10344588;28;20417;-61
2023/01/10 21:39:22;;;;;;;11.68;3.33;;;;;;;5.87;66.67;99883.53;10344344;28;20503;-61
2023/01/10 21:44:24;;;;;;;10.02;3.72;;;;;;;5.70;67.23;99875.59;10343421;28;20284;-62
2023/01/10 21:49:26;;;;;;;7.75;2.13;;;;;;;5.72;67.04;99873.78;10344913;28;20046;-61
2023/01/10 21:54:28;;;;;;;9.18;4.43;;;;;;;5.90;66.63;99862.63;10344498;28;20432;-61
2023/01/10 21:59:29;;;;;;;5.53;1.77;;;;;;;6.00;66.44;99858.75;10343720;28;20064;-61
2023/01/10 22:04:31;;;;;;;6.88;2.03;;;;;;;6.07;66.26;99852.41;10343669;28;20050;-61
2023/01/10 22:09:32;;;;;;;5.70;1.40;;;;;;;6.15;66.06;99857.25;10344115;28;20066;-61
2023/01/10 22:14:34;;;;;;;4.30;1.30;;;;;;;6.07;66.17;99860.19;10342816;28;20046;-61
2023/01/10 22:19:37;;;;;;;3.85;1.52;;;;;;;6.20;66.28;99855.31;10344234;28;20058;-61
2023/01/10 22:24:40;;;;;;;6.15;2.10;;;;;;;6.23;66.12;99856.03;10343197;28;20602;-61
2023/01/10 22:29:44;;;;;;;4.10;1.27;;;;;;;6.21;66.29;99854.38;10343135;28;20069;-61
2023/01/10 22:34:46;;;;;;;6.85;1.95;;;;;;;6.27;66.21;99856.75;10340468;28;20042;-61
2023/01/10 22:39:48;;;;;;;5.88;1.50;;;;;;;6.29;65.96;99840.19;10343935;28;20498;-61
2023/01/10 22:44:49;;;;;;;4.60;1.35;;;;;;;6.33;65.81;99833.09;10341461;28;20693;-61
2023/01/10 22:49:51;;;;;;;2.92;1.15;;;;;;;6.47;65.88;99835.13;10342277;28;20143;-61
2023/01/10 22:54:52;;;;;;;5.97;1.52;;;;;;;6.45;65.69;99818.75;10342540;28;20065;-61
2023/01/10 22:59:54;;;;;;;4.32;1.67;;;;;;;6.47;65.81;99809.13;10340322;28;20205;-61
2023/01/10 23:04:56;;;;;;;4.65;1.42;;;;;;;6.44;65.63;99809.25;10343364;28;20046;-61
2023/01/10 23:09:57;;;;;;;4.93;1.30;;;;;;;6.42;65.54;99804.16;10345235;28;20282;-61
2023/01/10 23:14:59;;;;;;;4.00;1.30;;;;;;;6.32;66.06;99803.72;10341626;28;20056;-61
2023/01/10 23:20:01;;;;;;;5.05;1.20;;;;;;;6.34;66.48;99799.31;10341385;28;20410;-61
2023/01/10 23:25:03;;;;;;;4.05;1.25;;;;;;;6.32;66.40;99782.09;10344092;28;20053;-61
2023/01/10 23:30:06;;;;;;;2.78;1.20;;;;;;;6.32;66.49;99785.53;10346839;28;20537;-61
2023/01/10 23:35:08;;;;;;;2.97;1.20;;;;;;;6.35;66.49;99782.78;10345467;28;20140;-61
2023/01/10 23:40:10;;;;;;;2.33;1.20;;;;;;;6.35;66.50;99776.75;10348366;28;20422;-61
2023/01/10 23:45:12;;;;;;;3.88;1.30;;;;;;;6.44;66.52;99759.91;10347825;28;20144;-61
2023/01/10 23:50:14;;;;;;;2.92;1.10;;;;;;;6.52;66.44;99752.59;10345914;28;20058;-61